UAE409 OMDB-OBBI
Flight info
| Callsign | UAE409 |
|---|---|
| Flight time | 0h 49m |
| Altitude | 28000 |
| Route | NABIX P699 ORMID Y856 ORDIG |
| Aircraft | B77W/H-SDE1E2E3FGHIJ2J3J4J5M1RWXY/LB1D1 |
Departure
| Time | 2026-04-20 15:54 |
|---|---|
| Airport | Dubai International Airport (OMDB) |
Arrival
| Time | 2026-04-20 16:43 |
|---|---|
| Airport | Bahrain International Airport (OBBI) |
| Time | Latitude | Longitude | Altitude | Speed | Heading |
|---|---|---|---|---|---|
| 2026-04-20 15:33 | 25.24286 | 55.37530 | 27 ft | 0 kts | 207° |
| 2026-04-20 15:46 | 25.24286 | 55.37531 | 24 ft | 1 kts | 207° |
| 2026-04-20 15:46 | 25.24303 | 55.37542 | 23 ft | 4 kts | 212° |
| 2026-04-20 15:46 | 25.24325 | 55.37558 | 21 ft | 4 kts | 211° |
| 2026-04-20 15:47 | 25.24346 | 55.37567 | 24 ft | 4 kts | 157° |
| 2026-04-20 15:47 | 25.24364 | 55.37548 | 25 ft | 4 kts | 119° |
| 2026-04-20 15:47 | 25.24369 | 55.37537 | 25 ft | 0 kts | 121° |
| 2026-04-20 15:50 | 25.24367 | 55.37542 | 25 ft | 2 kts | 121° |
| 2026-04-20 15:50 | 25.24358 | 55.37558 | 24 ft | 5 kts | 121° |
| 2026-04-20 15:50 | 25.24333 | 55.37603 | 24 ft | 9 kts | 121° |
| 2026-04-20 15:50 | 25.24295 | 55.37671 | 27 ft | 11 kts | 122° |
| 2026-04-20 15:51 | 25.24267 | 55.37742 | 27 ft | 10 kts | 89° |
| 2026-04-20 15:51 | 25.24314 | 55.37801 | 27 ft | 11 kts | 37° |
| 2026-04-20 15:51 | 25.24374 | 55.37851 | 27 ft | 11 kts | 36° |
| 2026-04-20 15:51 | 25.24435 | 55.37900 | 27 ft | 11 kts | 36° |
| 2026-04-20 15:52 | 25.24498 | 55.37947 | 27 ft | 11 kts | 31° |
| 2026-04-20 15:52 | 25.24519 | 55.37961 | 27 ft | 11 kts | 31° |
| 2026-04-20 15:52 | 25.24615 | 55.38028 | 28 ft | 9 kts | 32° |
| 2026-04-20 15:53 | 25.24721 | 55.38101 | 27 ft | 8 kts | 26° |
| 2026-04-20 15:53 | 25.24770 | 55.38081 | 27 ft | 9 kts | 309° |
| 2026-04-20 15:53 | 25.24786 | 55.38055 | 27 ft | 0 kts | 302° |
| 2026-04-20 15:54 | 25.24894 | 55.37861 | 27 ft | 71 kts | 301° |
| 2026-04-20 15:54 | 25.25298 | 55.37137 | 27 ft | 147 kts | 302° |
| 2026-04-20 15:54 | 25.25937 | 55.35994 | 126 ft | 194 kts | 302° |
| 2026-04-20 15:54 | 25.26624 | 55.34770 | 1075 ft | 179 kts | 302° |
| 2026-04-20 15:55 | 25.27289 | 55.33565 | 1762 ft | 189 kts | 302° |
| 2026-04-20 15:55 | 25.27993 | 55.32290 | 2329 ft | 197 kts | 302° |
| 2026-04-20 15:55 | 25.28717 | 55.30988 | 2969 ft | 200 kts | 303° |
| 2026-04-20 15:55 | 25.29292 | 55.29594 | 3528 ft | 203 kts | 279° |
| 2026-04-20 15:56 | 25.28996 | 55.28050 | 3979 ft | 213 kts | 243° |
| 2026-04-20 15:56 | 25.28291 | 55.26603 | 4494 ft | 216 kts | 247° |
| 2026-04-20 15:56 | 25.27667 | 55.25106 | 5127 ft | 216 kts | 248° |
| 2026-04-20 15:56 | 25.27044 | 55.23603 | 5811 ft | 215 kts | 248° |
| 2026-04-20 15:57 | 25.26414 | 55.22104 | 6422 ft | 215 kts | 247° |
| 2026-04-20 15:57 | 25.25773 | 55.20579 | 6861 ft | 228 kts | 247° |
| 2026-04-20 15:57 | 25.25071 | 55.18912 | 7181 ft | 245 kts | 247° |
| 2026-04-20 15:57 | 25.24339 | 55.17186 | 7766 ft | 252 kts | 247° |
| 2026-04-20 15:58 | 25.23737 | 55.15344 | 8205 ft | 263 kts | 260° |
| 2026-04-20 15:58 | 25.23450 | 55.13264 | 8544 ft | 280 kts | 265° |
| 2026-04-20 15:58 | 25.23233 | 55.11110 | 9022 ft | 287 kts | 265° |
| 2026-04-20 15:58 | 25.22993 | 55.08901 | 9540 ft | 291 kts | 264° |
| 2026-04-20 15:59 | 25.22723 | 55.06685 | 10099 ft | 293 kts | 263° |
| 2026-04-20 15:59 | 25.22425 | 55.04417 | 10528 ft | 301 kts | 263° |
| 2026-04-20 15:59 | 25.22321 | 55.03651 | 10671 ft | 304 kts | 263° |
| 2026-04-20 15:59 | 25.21785 | 54.99764 | 11612 ft | 310 kts | 263° |
| 2026-04-20 16:00 | 25.21457 | 54.97399 | 12198 ft | 317 kts | 263° |
| 2026-04-20 16:00 | 25.21115 | 54.94900 | 12350 ft | 338 kts | 264° |
| 2026-04-20 16:00 | 25.20817 | 54.92217 | 12570 ft | 365 kts | 266° |
| 2026-04-20 16:00 | 25.20614 | 54.89372 | 13218 ft | 377 kts | 268° |
| 2026-04-20 16:01 | 25.20453 | 54.86446 | 14042 ft | 383 kts | 268° |
| 2026-04-20 16:01 | 25.20287 | 54.83555 | 14652 ft | 382 kts | 268° |
| 2026-04-20 16:01 | 25.20093 | 54.80606 | 15007 ft | 387 kts | 267° |
| 2026-04-20 16:01 | 25.19877 | 54.77612 | 15399 ft | 391 kts | 266° |
| 2026-04-20 16:02 | 25.19707 | 54.74601 | 16158 ft | 395 kts | 269° |
| 2026-04-20 16:02 | 25.19701 | 54.71558 | 17111 ft | 396 kts | 272° |
| 2026-04-20 16:02 | 25.19848 | 54.68511 | 17997 ft | 400 kts | 275° |
| 2026-04-20 16:02 | 25.20111 | 54.65430 | 18732 ft | 405 kts | 276° |
| 2026-04-20 16:03 | 25.20446 | 54.62330 | 19421 ft | 408 kts | 277° |
| 2026-04-20 16:03 | 25.20754 | 54.59200 | 20191 ft | 411 kts | 275° |
| 2026-04-20 16:03 | 25.20976 | 54.56081 | 20994 ft | 413 kts | 274° |
| 2026-04-20 16:03 | 25.21158 | 54.52905 | 21780 ft | 414 kts | 274° |
| 2026-04-20 16:04 | 25.21479 | 54.49767 | 22212 ft | 413 kts | 279° |
| 2026-04-20 16:04 | 25.22076 | 54.46636 | 22347 ft | 419 kts | 283° |
| 2026-04-20 16:04 | 25.22887 | 54.43514 | 22498 ft | 423 kts | 287° |
| 2026-04-20 16:04 | 25.23812 | 54.40422 | 22765 ft | 424 kts | 288° |
| 2026-04-20 16:05 | 25.24769 | 54.37340 | 23026 ft | 425 kts | 288° |
| 2026-04-20 16:05 | 25.25706 | 54.34240 | 23270 ft | 426 kts | 287° |
| 2026-04-20 16:05 | 25.26614 | 54.31133 | 23501 ft | 428 kts | 286° |
| 2026-04-20 16:05 | 25.27461 | 54.27980 | 23981 ft | 432 kts | 284° |
| 2026-04-20 16:06 | 25.28255 | 54.24738 | 24684 ft | 432 kts | 284° |
| 2026-04-20 16:06 | 25.29016 | 54.21513 | 25423 ft | 431 kts | 284° |
| 2026-04-20 16:06 | 25.29767 | 54.18368 | 26263 ft | 428 kts | 284° |
| 2026-04-20 16:06 | 25.30543 | 54.15202 | 27146 ft | 424 kts | 284° |
| 2026-04-20 16:07 | 25.31324 | 54.12054 | 27775 ft | 426 kts | 284° |
| 2026-04-20 16:07 | 25.32079 | 54.08883 | 27838 ft | 426 kts | 283° |
| 2026-04-20 16:07 | 25.32770 | 54.05700 | 27854 ft | 423 kts | 282° |
| 2026-04-20 16:07 | 25.33407 | 54.02535 | 27850 ft | 422 kts | 281° |
| 2026-04-20 16:08 | 25.34032 | 53.99376 | 27856 ft | 422 kts | 281° |
| 2026-04-20 16:08 | 25.34672 | 53.96202 | 27859 ft | 423 kts | 282° |
| 2026-04-20 16:08 | 25.35333 | 53.93027 | 27862 ft | 423 kts | 282° |
| 2026-04-20 16:08 | 25.35997 | 53.89901 | 27859 ft | 424 kts | 282° |
| 2026-04-20 16:09 | 25.36675 | 53.86724 | 27856 ft | 424 kts | 282° |
| 2026-04-20 16:09 | 25.37349 | 53.83556 | 27859 ft | 424 kts | 282° |
| 2026-04-20 16:09 | 25.38018 | 53.80374 | 27854 ft | 424 kts | 282° |
| 2026-04-20 16:09 | 25.38678 | 53.77202 | 27852 ft | 423 kts | 282° |
| 2026-04-20 16:10 | 25.39339 | 53.74021 | 27856 ft | 423 kts | 282° |
| 2026-04-20 16:10 | 25.39995 | 53.70857 | 27853 ft | 422 kts | 282° |
| 2026-04-20 16:10 | 25.40651 | 53.67696 | 27853 ft | 421 kts | 282° |
| 2026-04-20 16:10 | 25.41308 | 53.64534 | 27856 ft | 421 kts | 282° |
| 2026-04-20 16:11 | 25.41962 | 53.61380 | 27853 ft | 420 kts | 282° |
| 2026-04-20 16:11 | 25.42607 | 53.58271 | 27857 ft | 419 kts | 282° |
| 2026-04-20 16:11 | 25.43260 | 53.55128 | 27855 ft | 418 kts | 282° |
| 2026-04-20 16:11 | 25.43914 | 53.51992 | 27858 ft | 418 kts | 282° |
| 2026-04-20 16:12 | 25.44566 | 53.48867 | 27855 ft | 417 kts | 282° |
| 2026-04-20 16:12 | 25.45219 | 53.45733 | 27853 ft | 416 kts | 282° |
| 2026-04-20 16:12 | 25.45868 | 53.42615 | 27854 ft | 416 kts | 282° |
| 2026-04-20 16:12 | 25.46518 | 53.39487 | 27860 ft | 416 kts | 282° |
| 2026-04-20 16:13 | 25.47163 | 53.36375 | 27855 ft | 416 kts | 282° |
| 2026-04-20 16:13 | 25.47811 | 53.33246 | 27851 ft | 416 kts | 282° |
| 2026-04-20 16:13 | 25.48455 | 53.30132 | 27854 ft | 416 kts | 282° |
| 2026-04-20 16:13 | 25.49091 | 53.27053 | 27857 ft | 416 kts | 282° |
| 2026-04-20 16:14 | 25.49737 | 53.23924 | 27855 ft | 416 kts | 282° |
| 2026-04-20 16:14 | 25.50165 | 53.21849 | 27856 ft | 416 kts | 282° |
| 2026-04-20 16:15 | 25.52931 | 53.08382 | 27853 ft | 417 kts | 282° |
| 2026-04-20 16:16 | 25.53236 | 53.06894 | 27855 ft | 417 kts | 282° |
| 2026-04-20 16:16 | 25.53880 | 53.03745 | 27854 ft | 417 kts | 282° |
| 2026-04-20 16:16 | 25.54520 | 53.00614 | 27853 ft | 417 kts | 282° |
| 2026-04-20 16:17 | 25.55160 | 52.97480 | 27856 ft | 417 kts | 282° |
| 2026-04-20 16:17 | 25.55793 | 52.94405 | 27853 ft | 414 kts | 282° |
| 2026-04-20 16:17 | 25.56542 | 52.91309 | 27848 ft | 409 kts | 285° |
| 2026-04-20 16:17 | 25.57470 | 52.88360 | 27856 ft | 413 kts | 291° |
| 2026-04-20 16:18 | 25.58749 | 52.85488 | 27864 ft | 422 kts | 297° |
| 2026-04-20 16:18 | 25.60244 | 52.82633 | 27870 ft | 434 kts | 298° |
| 2026-04-20 16:18 | 25.61817 | 52.79725 | 27865 ft | 447 kts | 298° |
| 2026-04-20 16:18 | 25.63407 | 52.76715 | 27872 ft | 458 kts | 298° |
| 2026-04-20 16:19 | 25.64979 | 52.73624 | 27861 ft | 462 kts | 297° |
| 2026-04-20 16:19 | 25.66510 | 52.70506 | 27856 ft | 459 kts | 296° |
| 2026-04-20 16:19 | 25.68008 | 52.67389 | 27851 ft | 458 kts | 296° |
| 2026-04-20 16:19 | 25.69501 | 52.64258 | 27847 ft | 456 kts | 296° |
| 2026-04-20 16:20 | 25.70973 | 52.61183 | 27846 ft | 456 kts | 296° |
| 2026-04-20 16:20 | 25.72467 | 52.58081 | 27850 ft | 455 kts | 296° |
| 2026-04-20 16:20 | 25.73966 | 52.54991 | 27851 ft | 456 kts | 296° |
| 2026-04-20 16:20 | 25.75457 | 52.51920 | 27845 ft | 456 kts | 296° |
| 2026-04-20 16:21 | 25.76977 | 52.48772 | 27852 ft | 457 kts | 296° |
| 2026-04-20 16:21 | 25.78458 | 52.45638 | 27850 ft | 458 kts | 295° |
| 2026-04-20 16:21 | 25.79917 | 52.42506 | 27847 ft | 459 kts | 295° |
| 2026-04-20 16:21 | 25.81387 | 52.39335 | 27848 ft | 460 kts | 295° |
| 2026-04-20 16:22 | 25.82351 | 52.37257 | 27849 ft | 460 kts | 295° |
| 2026-04-20 16:22 | 25.83827 | 52.34094 | 27848 ft | 460 kts | 295° |
| 2026-04-20 16:22 | 25.85307 | 52.30938 | 27846 ft | 460 kts | 296° |
| 2026-04-20 16:22 | 25.87370 | 52.26815 | 27848 ft | 461 kts | 298° |
| 2026-04-20 16:23 | 25.88461 | 52.24777 | 27846 ft | 461 kts | 299° |
| 2026-04-20 16:23 | 25.90152 | 52.21782 | 27816 ft | 452 kts | 301° |
| 2026-04-20 16:23 | 25.91883 | 52.18876 | 27846 ft | 451 kts | 302° |
| 2026-04-20 16:23 | 25.93661 | 52.16029 | 27750 ft | 449 kts | 303° |
| 2026-04-20 16:24 | 25.95466 | 52.13203 | 27237 ft | 445 kts | 303° |
| 2026-04-20 16:24 | 25.97256 | 52.10377 | 26549 ft | 449 kts | 302° |
| 2026-04-20 16:24 | 25.99038 | 52.07499 | 25984 ft | 452 kts | 302° |
| 2026-04-20 16:24 | 26.00786 | 52.04607 | 25578 ft | 451 kts | 301° |
| 2026-04-20 16:25 | 26.02509 | 52.01706 | 25283 ft | 448 kts | 301° |
| 2026-04-20 16:25 | 26.04215 | 51.98800 | 24995 ft | 445 kts | 301° |
| 2026-04-20 16:25 | 26.05890 | 51.95931 | 24908 ft | 440 kts | 301° |
| 2026-04-20 16:25 | 26.07554 | 51.93077 | 24876 ft | 441 kts | 301° |
| 2026-04-20 16:26 | 26.09229 | 51.90202 | 24851 ft | 444 kts | 301° |
| 2026-04-20 16:26 | 26.10893 | 51.87350 | 24847 ft | 445 kts | 301° |
| 2026-04-20 16:26 | 26.12579 | 51.84464 | 24843 ft | 444 kts | 301° |
| 2026-04-20 16:26 | 26.14262 | 51.81586 | 24844 ft | 444 kts | 301° |
| 2026-04-20 16:27 | 26.15952 | 51.78697 | 24734 ft | 441 kts | 301° |
| 2026-04-20 16:27 | 26.17622 | 51.75841 | 24470 ft | 440 kts | 301° |
| 2026-04-20 16:27 | 26.19274 | 51.73015 | 23954 ft | 432 kts | 301° |
| 2026-04-20 16:27 | 26.20908 | 51.70215 | 23400 ft | 433 kts | 301° |
| 2026-04-20 16:28 | 26.22552 | 51.67393 | 22677 ft | 433 kts | 301° |
| 2026-04-20 16:28 | 26.24178 | 51.64599 | 21915 ft | 427 kts | 301° |
| 2026-04-20 16:28 | 26.25764 | 51.61875 | 21177 ft | 421 kts | 301° |
| 2026-04-20 16:28 | 26.27347 | 51.59152 | 20461 ft | 417 kts | 301° |
| 2026-04-20 16:29 | 26.28923 | 51.56443 | 19741 ft | 412 kts | 301° |
| 2026-04-20 16:29 | 26.30472 | 51.53777 | 19045 ft | 408 kts | 301° |
| 2026-04-20 16:29 | 26.32011 | 51.51127 | 18362 ft | 405 kts | 301° |
| 2026-04-20 16:29 | 26.33530 | 51.48511 | 17607 ft | 392 kts | 301° |
| 2026-04-20 16:30 | 26.34966 | 51.46043 | 16841 ft | 371 kts | 301° |
| 2026-04-20 16:30 | 26.36334 | 51.43693 | 16088 ft | 352 kts | 301° |
| 2026-04-20 16:30 | 26.37624 | 51.41473 | 15360 ft | 337 kts | 301° |
| 2026-04-20 16:30 | 26.38874 | 51.39316 | 14645 ft | 324 kts | 300° |
| 2026-04-20 16:31 | 26.40074 | 51.37239 | 13951 ft | 314 kts | 300° |
| 2026-04-20 16:31 | 26.41245 | 51.35213 | 13221 ft | 308 kts | 300° |
| 2026-04-20 16:31 | 26.42400 | 51.33214 | 12563 ft | 305 kts | 300° |
| 2026-04-20 16:31 | 26.43540 | 51.31244 | 12316 ft | 302 kts | 300° |
| 2026-04-20 16:32 | 26.44684 | 51.29251 | 12151 ft | 306 kts | 298° |
| 2026-04-20 16:32 | 26.45615 | 51.27117 | 12012 ft | 303 kts | 284° |
| 2026-04-20 16:32 | 26.45804 | 51.24810 | 12011 ft | 300 kts | 261° |
| 2026-04-20 16:32 | 26.45093 | 51.22623 | 11916 ft | 305 kts | 241° |
| 2026-04-20 16:33 | 26.43895 | 51.20698 | 11576 ft | 306 kts | 234° |
| 2026-04-20 16:33 | 26.42551 | 51.18832 | 11196 ft | 302 kts | 233° |
| 2026-04-20 16:33 | 26.41228 | 51.17058 | 10846 ft | 299 kts | 232° |
| 2026-04-20 16:33 | 26.39895 | 51.15287 | 10427 ft | 298 kts | 232° |
| 2026-04-20 16:34 | 26.38563 | 51.13515 | 9972 ft | 298 kts | 232° |
| 2026-04-20 16:34 | 26.37231 | 51.11739 | 9483 ft | 297 kts | 232° |
| 2026-04-20 16:34 | 26.35902 | 51.09961 | 9014 ft | 298 kts | 232° |
| 2026-04-20 16:34 | 26.34592 | 51.08198 | 8505 ft | 293 kts | 232° |
| 2026-04-20 16:35 | 26.33319 | 51.06471 | 8012 ft | 280 kts | 232° |
| 2026-04-20 16:35 | 26.32124 | 51.04833 | 7516 ft | 266 kts | 232° |
| 2026-04-20 16:35 | 26.30992 | 51.03262 | 7033 ft | 256 kts | 232° |
| 2026-04-20 16:35 | 26.29894 | 51.01715 | 6572 ft | 254 kts | 232° |
| 2026-04-20 16:36 | 26.28810 | 51.00169 | 6108 ft | 251 kts | 232° |
| 2026-04-20 16:36 | 26.27753 | 50.98644 | 5609 ft | 245 kts | 232° |
| 2026-04-20 16:36 | 26.26741 | 50.97166 | 5183 ft | 234 kts | 232° |
| 2026-04-20 16:36 | 26.25787 | 50.95755 | 5003 ft | 226 kts | 232° |
| 2026-04-20 16:37 | 26.24845 | 50.94349 | 4567 ft | 227 kts | 233° |
| 2026-04-20 16:37 | 26.23903 | 50.92936 | 4076 ft | 225 kts | 232° |
| 2026-04-20 16:37 | 26.22986 | 50.91541 | 3685 ft | 225 kts | 232° |
| 2026-04-20 16:37 | 26.22052 | 50.90098 | 3247 ft | 238 kts | 232° |
| 2026-04-20 16:38 | 26.20976 | 50.88661 | 2741 ft | 237 kts | 221° |
| 2026-04-20 16:38 | 26.19732 | 50.87501 | 2265 ft | 230 kts | 215° |
| 2026-04-20 16:38 | 26.18514 | 50.86482 | 2041 ft | 214 kts | 213° |
| 2026-04-20 16:38 | 26.17426 | 50.85357 | 2006 ft | 217 kts | 234° |
| 2026-04-20 16:39 | 26.16929 | 50.83781 | 2003 ft | 217 kts | 268° |
| 2026-04-20 16:39 | 26.16971 | 50.82136 | 1991 ft | 211 kts | 275° |
| 2026-04-20 16:39 | 26.17277 | 50.80585 | 2003 ft | 200 kts | 298° |
| 2026-04-20 16:39 | 26.17971 | 50.79255 | 1994 ft | 200 kts | 306° |
| 2026-04-20 16:40 | 26.18715 | 50.77943 | 2001 ft | 200 kts | 305° |
| 2026-04-20 16:40 | 26.19451 | 50.76626 | 2001 ft | 201 kts | 306° |
| 2026-04-20 16:40 | 26.20198 | 50.75317 | 1991 ft | 195 kts | 306° |
| 2026-04-20 16:40 | 26.20901 | 50.74089 | 1917 ft | 182 kts | 307° |
| 2026-04-20 16:41 | 26.21582 | 50.72907 | 1666 ft | 179 kts | 308° |
| 2026-04-20 16:41 | 26.22258 | 50.71736 | 1397 ft | 175 kts | 307° |
| 2026-04-20 16:41 | 26.22890 | 50.70640 | 1219 ft | 164 kts | 307° |
| 2026-04-20 16:41 | 26.23485 | 50.69607 | 1017 ft | 153 kts | 307° |
| 2026-04-20 16:42 | 26.24049 | 50.68630 | 795 ft | 148 kts | 307° |
| 2026-04-20 16:42 | 26.24593 | 50.67672 | 719 ft | 148 kts | 306° |
| 2026-04-20 16:42 | 26.25139 | 50.66716 | 465 ft | 147 kts | 306° |
| 2026-04-20 16:42 | 26.25679 | 50.65803 | 214 ft | 135 kts | 304° |
| 2026-04-20 16:43 | 26.26200 | 50.64901 | 91 ft | 143 kts | 302° |
| 2026-04-20 16:43 | 26.26723 | 50.63982 | 25 ft | 133 kts | 302° |
| 2026-04-20 16:43 | 26.27157 | 50.63234 | 20 ft | 87 kts | 302° |
| 2026-04-20 16:43 | 26.27386 | 50.62843 | 23 ft | 41 kts | 303° |
| 2026-04-20 16:44 | 26.27460 | 50.62694 | 25 ft | 8 kts | 278° |
| 2026-04-20 16:44 | 26.27437 | 50.62641 | 27 ft | 8 kts | 223° |
| 2026-04-20 16:44 | 26.27392 | 50.62603 | 25 ft | 8 kts | 212° |
| 2026-04-20 16:44 | 26.27381 | 50.62596 | 26 ft | 0 kts | 211° |
| 2026-04-20 16:46 | 26.27377 | 50.62594 | 25 ft | 3 kts | 211° |
| 2026-04-20 16:46 | 26.27326 | 50.62581 | 25 ft | 7 kts | 153° |
| 2026-04-20 16:46 | 26.27290 | 50.62624 | 25 ft | 11 kts | 122° |
| 2026-04-20 16:47 | 26.27271 | 50.62672 | 26 ft | 5 kts | 110° |
| 2026-04-20 16:47 | 26.27247 | 50.62738 | 24 ft | 12 kts | 115° |
| 2026-04-20 16:47 | 26.27199 | 50.62829 | 25 ft | 15 kts | 122° |
| 2026-04-20 16:47 | 26.27159 | 50.62890 | 27 ft | 6 kts | 139° |
| 2026-04-20 16:48 | 26.27144 | 50.62904 | 25 ft | 0 kts | 139° |
| 2026-04-20 16:48 | 26.27143 | 50.62904 | 25 ft | 1 kts | 139° |
| 2026-04-20 16:48 | 26.27105 | 50.62909 | 27 ft | 11 kts | 202° |
| 2026-04-20 16:49 | 26.27039 | 50.62902 | 24 ft | 11 kts | 154° |
| 2026-04-20 16:49 | 26.26986 | 50.62955 | 26 ft | 5 kts | 126° |
| 2026-04-20 16:49 | 26.26966 | 50.62987 | 24 ft | 6 kts | 125° |
| 2026-04-20 16:49 | 26.26962 | 50.62994 | 25 ft | 0 kts | 125° |
| 2026-04-20 16:51 | 26.26945 | 50.63020 | 27 ft | 9 kts | 124° |
| 2026-04-20 16:51 | 26.26914 | 50.63071 | 26 ft | 0 kts | 124° |
| 2026-04-20 16:52 | 26.26895 | 50.63101 | 23 ft | 10 kts | 126° |
| 2026-04-20 16:52 | 26.26838 | 50.63190 | 24 ft | 16 kts | 125° |
| 2026-04-20 16:52 | 26.26788 | 50.63271 | 25 ft | 11 kts | 125° |
| 2026-04-20 16:53 | 26.26746 | 50.63345 | 24 ft | 11 kts | 120° |
| 2026-04-20 16:53 | 26.26723 | 50.63389 | 24 ft | 0 kts | 121° |
| 2026-04-20 16:53 | 26.26720 | 50.63392 | 23 ft | 1 kts | 127° |
| 2026-04-20 16:53 | 26.26691 | 50.63401 | 25 ft | 7 kts | 188° |
| 2026-04-20 16:54 | 26.26675 | 50.63390 | 26 ft | 4 kts | 211° |
| 2026-04-20 16:54 | 26.26651 | 50.63358 | 26 ft | 8 kts | 232° |
| 2026-04-20 16:54 | 26.26641 | 50.63343 | 24 ft | 0 kts | 232° |